sensor_id;sensor_type;location;lat;lon;timestamp;temperature;humidity
26505;DHT22;19493;48.042;7.584;2024-01-30T00:00:07;1.70;99.90
26505;DHT22;19493;48.042;7.584;2024-01-30T00:02:33;1.70;99.90
26505;DHT22;19493;48.042;7.584;2024-01-30T00:04:59;1.80;99.90
26505;DHT22;19493;48.042;7.584;2024-01-30T00:07:24;1.80;99.90
26505;DHT22;19493;48.042;7.584;2024-01-30T00:09:50;1.80;99.90
26505;DHT22;19493;48.042;7.584;2024-01-30T00:12:15;1.70;99.90
26505;DHT22;19493;48.042;7.584;2024-01-30T00:14:42;1.60;99.90
26505;DHT22;19493;48.042;7.584;2024-01-30T00:17:08;1.50;99.90
26505;DHT22;19493;48.042;7.584;2024-01-30T00:19:34;1.50;99.90
26505;DHT22;19493;48.042;7.584;2024-01-30T00:21:59;1.50;99.90
26505;DHT22;19493;48.042;7.584;2024-01-30T00:24:25;1.50;99.90
26505;DHT22;19493;48.042;7.584;2024-01-30T00:26:50;1.50;99.90
26505;DHT22;19493;48.042;7.584;2024-01-30T00:29:16;1.40;99.90
26505;DHT22;19493;48.042;7.584;2024-01-30T00:31:45;1.50;99.90
26505;DHT22;19493;48.042;7.584;2024-01-30T00:34:10;1.40;99.90
26505;DHT22;19493;48.042;7.584;2024-01-30T00:36:37;1.30;99.90
26505;DHT22;19493;48.042;7.584;2024-01-30T00:39:02;1.30;99.90
26505;DHT22;19493;48.042;7.584;2024-01-30T00:41:31;1.30;99.90
26505;DHT22;19493;48.042;7.584;2024-01-30T00:43:57;1.30;99.90
26505;DHT22;19493;48.042;7.584;2024-01-30T00:46:22;1.30;99.90
26505;DHT22;19493;48.042;7.584;2024-01-30T00:48:48;1.30;99.90
26505;DHT22;19493;48.042;7.584;2024-01-30T00:51:14;1.30;99.90
26505;DHT22;19493;48.042;7.584;2024-01-30T00:53:40;1.20;99.90
26505;DHT22;19493;48.042;7.584;2024-01-30T00:56:07;1.20;99.90
26505;DHT22;19493;48.042;7.584;2024-01-30T00:58:33;1.20;99.90
26505;DHT22;19493;48.042;7.584;2024-01-30T01:00:58;1.20;99.90
26505;DHT22;19493;48.042;7.584;2024-01-30T01:03:24;1.20;99.90
26505;DHT22;19493;48.042;7.584;2024-01-30T01:05:50;1.30;99.90
26505;DHT22;19493;48.042;7.584;2024-01-30T01:08:15;1.30;99.90
26505;DHT22;19493;48.042;7.584;2024-01-30T01:10:41;1.40;99.90
26505;DHT22;19493;48.042;7.584;2024-01-30T01:13:06;1.50;99.90
26505;DHT22;19493;48.042;7.584;2024-01-30T01:15:32;1.70;99.90
26505;DHT22;19493;48.042;7.584;2024-01-30T01:17:57;1.80;99.90
26505;DHT22;19493;48.042;7.584;2024-01-30T01:20:23;2.00;99.90
26505;DHT22;19493;48.042;7.584;2024-01-30T01:22:48;2.20;99.90
26505;DHT22;19493;48.042;7.584;2024-01-30T01:25:14;2.50;99.90
26505;DHT22;19493;48.042;7.584;2024-01-30T01:27:40;2.60;99.90
26505;DHT22;19493;48.042;7.584;2024-01-30T01:30:09;2.60;99.90
26505;DHT22;19493;48.042;7.584;2024-01-30T01:32:35;2.60;99.90
26505;DHT22;19493;48.042;7.584;2024-01-30T01:35:00;2.40;99.90
26505;DHT22;19493;48.042;7.584;2024-01-30T01:37:26;2.30;99.90
26505;DHT22;19493;48.042;7.584;2024-01-30T01:39:52;2.00;99.90
26505;DHT22;19493;48.042;7.584;2024-01-30T01:42:17;1.90;99.90
26505;DHT22;19493;48.042;7.584;2024-01-30T01:44:43;1.70;99.90
26505;DHT22;19493;48.042;7.584;2024-01-30T01:47:09;1.80;99.90
26505;DHT22;19493;48.042;7.584;2024-01-30T01:49:34;1.80;99.90
26505;DHT22;19493;48.042;7.584;2024-01-30T01:52:00;1.90;99.90
26505;DHT22;19493;48.042;7.584;2024-01-30T01:54:26;2.00;99.90
26505;DHT22;19493;48.042;7.584;2024-01-30T01:56:53;2.10;99.90
26505;DHT22;19493;48.042;7.584;2024-01-30T01:59:20;2.10;99.90
26505;DHT22;19493;48.042;7.584;2024-01-30T02:01:46;2.10;99.90
26505;DHT22;19493;48.042;7.584;2024-01-30T02:04:15;2.10;99.90
26505;DHT22;19493;48.042;7.584;2024-01-30T02:06:41;2.10;99.90
26505;DHT22;19493;48.042;7.584;2024-01-30T02:09:06;2.10;99.90
26505;DHT22;19493;48.042;7.584;2024-01-30T02:11:32;2.00;99.90
26505;DHT22;19493;48.042;7.584;2024-01-30T02:14:02;2.00;99.90
26505;DHT22;19493;48.042;7.584;2024-01-30T02:16:29;2.00;99.90
26505;DHT22;19493;48.042;7.584;2024-01-30T02:18:55;2.00;99.90
26505;DHT22;19493;48.042;7.584;2024-01-30T02:21:20;2.10;99.90
26505;DHT22;19493;48.042;7.584;2024-01-30T02:23:49;2.10;99.90
26505;DHT22;19493;48.042;7.584;2024-01-30T02:26:15;2.10;99.90
26505;DHT22;19493;48.042;7.584;2024-01-30T02:28:41;2.20;99.90
26505;DHT22;19493;48.042;7.584;2024-01-30T02:31:07;2.20;99.90
26505;DHT22;19493;48.042;7.584;2024-01-30T02:33:32;2.20;99.90
26505;DHT22;19493;48.042;7.584;2024-01-30T02:35:58;2.20;99.90
26505;DHT22;19493;48.042;7.584;2024-01-30T02:38:24;2.10;99.90
26505;DHT22;19493;48.042;7.584;2024-01-30T02:40:49;2.10;99.90
26505;DHT22;19493;48.042;7.584;2024-01-30T02:43:16;2.00;99.90
26505;DHT22;19493;48.042;7.584;2024-01-30T02:45:41;1.90;99.90
26505;DHT22;19493;48.042;7.584;2024-01-30T02:48:07;1.80;99.90
26505;DHT22;19493;48.042;7.584;2024-01-30T02:50:33;1.80;99.90
26505;DHT22;19493;48.042;7.584;2024-01-30T02:52:59;1.90;99.90
26505;DHT22;19493;48.042;7.584;2024-01-30T02:55:25;1.90;99.90
26505;DHT22;19493;48.042;7.584;2024-01-30T02:57:50;1.90;99.90
26505;DHT22;19493;48.042;7.584;2024-01-30T03:00:16;1.90;99.90
26505;DHT22;19493;48.042;7.584;2024-01-30T03:02:41;1.90;99.90
26505;DHT22;19493;48.042;7.584;2024-01-30T03:05:07;1.80;99.90
26505;DHT22;19493;48.042;7.584;2024-01-30T03:07:33;1.80;99.90
26505;DHT22;19493;48.042;7.584;2024-01-30T03:09:59;1.70;99.90
26505;DHT22;19493;48.042;7.584;2024-01-30T03:12:24;1.70;99.90
26505;DHT22;19493;48.042;7.584;2024-01-30T03:14:50;1.70;99.90
26505;DHT22;19493;48.042;7.584;2024-01-30T03:17:16;1.60;99.90
26505;DHT22;19493;48.042;7.584;2024-01-30T03:19:41;1.60;99.90
26505;DHT22;19493;48.042;7.584;2024-01-30T03:22:07;1.60;99.90
26505;DHT22;19493;48.042;7.584;2024-01-30T03:24:33;1.60;99.90
26505;DHT22;19493;48.042;7.584;2024-01-30T03:26:58;1.60;99.90
26505;DHT22;19493;48.042;7.584;2024-01-30T03:29:24;1.60;99.90
26505;DHT22;19493;48.042;7.584;2024-01-30T03:31:49;1.60;99.90
26505;DHT22;19493;48.042;7.584;2024-01-30T03:34:15;1.60;99.90
26505;DHT22;19493;48.042;7.584;2024-01-30T03:36:40;1.60;99.90
26505;DHT22;19493;48.042;7.584;2024-01-30T03:39:06;1.50;99.90
26505;DHT22;19493;48.042;7.584;2024-01-30T03:41:32;1.50;99.90
26505;DHT22;19493;48.042;7.584;2024-01-30T03:43:58;1.60;99.90
26505;DHT22;19493;48.042;7.584;2024-01-30T03:46:24;1.70;99.90
26505;DHT22;19493;48.042;7.584;2024-01-30T03:48:50;1.70;99.90
26505;DHT22;19493;48.042;7.584;2024-01-30T03:51:15;1.70;99.90
26505;DHT22;19493;48.042;7.584;2024-01-30T03:53:42;1.70;99.90
26505;DHT22;19493;48.042;7.584;2024-01-30T03:56:08;1.60;99.90
26505;DHT22;19493;48.042;7.584;2024-01-30T03:58:34;1.70;99.90
26505;DHT22;19493;48.042;7.584;2024-01-30T04:00:59;1.70;99.90
26505;DHT22;19493;48.042;7.584;2024-01-30T04:03:25;1.70;99.90
26505;DHT22;19493;48.042;7.584;2024-01-30T04:05:52;1.70;99.90
26505;DHT22;19493;48.042;7.584;2024-01-30T04:08:17;1.60;99.90
26505;DHT22;19493;48.042;7.584;2024-01-30T04:10:43;1.60;99.90
26505;DHT22;19493;48.042;7.584;2024-01-30T04:13:08;1.60;99.90
26505;DHT22;19493;48.042;7.584;2024-01-30T04:15:34;1.50;99.90
26505;DHT22;19493;48.042;7.584;2024-01-30T04:18:00;1.50;99.90
26505;DHT22;19493;48.042;7.584;2024-01-30T04:20:26;1.50;99.90
26505;DHT22;19493;48.042;7.584;2024-01-30T04:22:51;1.50;99.90
26505;DHT22;19493;48.042;7.584;2024-01-30T04:25:17;1.50;99.90
26505;DHT22;19493;48.042;7.584;2024-01-30T04:27:43;1.60;99.90
26505;DHT22;19493;48.042;7.584;2024-01-30T04:30:08;1.70;99.90
26505;DHT22;19493;48.042;7.584;2024-01-30T04:32:35;1.70;99.90
26505;DHT22;19493;48.042;7.584;2024-01-30T04:35:01;1.70;99.90
26505;DHT22;19493;48.042;7.584;2024-01-30T04:37:27;1.70;99.90
26505;DHT22;19493;48.042;7.584;2024-01-30T04:39:53;1.70;99.90
26505;DHT22;19493;48.042;7.584;2024-01-30T04:42:18;1.70;99.90
26505;DHT22;19493;48.042;7.584;2024-01-30T04:44:44;1.70;99.90
26505;DHT22;19493;48.042;7.584;2024-01-30T04:47:09;1.70;99.90
26505;DHT22;19493;48.042;7.584;2024-01-30T04:49:40;1.70;99.90
26505;DHT22;19493;48.042;7.584;2024-01-30T04:52:06;1.60;99.90
26505;DHT22;19493;48.042;7.584;2024-01-30T04:54:33;1.60;99.90
26505;DHT22;19493;48.042;7.584;2024-01-30T04:56:58;1.60;99.90
26505;DHT22;19493;48.042;7.584;2024-01-30T04:59:24;1.60;99.90
26505;DHT22;19493;48.042;7.584;2024-01-30T05:01:50;1.60;99.90
26505;DHT22;19493;48.042;7.584;2024-01-30T05:04:15;1.60;99.90
26505;DHT22;19493;48.042;7.584;2024-01-30T05:06:41;1.70;99.90
26505;DHT22;19493;48.042;7.584;2024-01-30T05:09:06;1.60;99.90
26505;DHT22;19493;48.042;7.584;2024-01-30T05:11:37;1.60;99.90
26505;DHT22;19493;48.042;7.584;2024-01-30T05:14:03;1.60;99.90
26505;DHT22;19493;48.042;7.584;2024-01-30T05:16:29;1.60;99.90
26505;DHT22;19493;48.042;7.584;2024-01-30T05:18:54;1.60;99.90
26505;DHT22;19493;48.042;7.584;2024-01-30T05:21:20;1.50;99.90
26505;DHT22;19493;48.042;7.584;2024-01-30T05:23:45;1.50;99.90
26505;DHT22;19493;48.042;7.584;2024-01-30T05:26:11;1.50;99.90
26505;DHT22;19493;48.042;7.584;2024-01-30T05:28:37;1.50;99.90
26505;DHT22;19493;48.042;7.584;2024-01-30T05:31:03;1.40;99.90
26505;DHT22;19493;48.042;7.584;2024-01-30T05:33:28;1.30;99.90
26505;DHT22;19493;48.042;7.584;2024-01-30T05:35:54;1.20;99.90
26505;DHT22;19493;48.042;7.584;2024-01-30T05:38:20;1.10;99.90
26505;DHT22;19493;48.042;7.584;2024-01-30T05:40:45;1.10;99.90
26505;DHT22;19493;48.042;7.584;2024-01-30T05:43:11;1.20;99.90
26505;DHT22;19493;48.042;7.584;2024-01-30T05:45:37;1.20;99.90
26505;DHT22;19493;48.042;7.584;2024-01-30T05:48:03;1.10;99.90
26505;DHT22;19493;48.042;7.584;2024-01-30T05:50:29;1.10;99.90
26505;DHT22;19493;48.042;7.584;2024-01-30T05:52:55;1.00;99.90
26505;DHT22;19493;48.042;7.584;2024-01-30T05:55:20;1.10;99.90
26505;DHT22;19493;48.042;7.584;2024-01-30T05:57:46;1.10;99.90
26505;DHT22;19493;48.042;7.584;2024-01-30T06:00:12;1.10;99.90
26505;DHT22;19493;48.042;7.584;2024-01-30T06:02:38;1.10;99.90
26505;DHT22;19493;48.042;7.584;2024-01-30T06:05:04;1.10;99.90
26505;DHT22;19493;48.042;7.584;2024-01-30T06:07:29;1.10;99.90
26505;DHT22;19493;48.042;7.584;2024-01-30T06:09:55;1.10;99.90
26505;DHT22;19493;48.042;7.584;2024-01-30T06:12:20;1.10;99.90
26505;DHT22;19493;48.042;7.584;2024-01-30T06:14:46;1.10;99.90
26505;DHT22;19493;48.042;7.584;2024-01-30T06:17:11;1.00;99.90
26505;DHT22;19493;48.042;7.584;2024-01-30T06:19:40;1.00;99.90
26505;DHT22;19493;48.042;7.584;2024-01-30T06:22:06;0.90;99.90
26505;DHT22;19493;48.042;7.584;2024-01-30T06:24:32;0.90;99.90
26505;DHT22;19493;48.042;7.584;2024-01-30T06:26:59;1.00;99.90
26505;DHT22;19493;48.042;7.584;2024-01-30T06:29:24;1.10;99.90
26505;DHT22;19493;48.042;7.584;2024-01-30T06:31:52;1.20;99.90
26505;DHT22;19493;48.042;7.584;2024-01-30T06:34:17;1.20;99.90
26505;DHT22;19493;48.042;7.584;2024-01-30T06:36:43;1.20;99.90
26505;DHT22;19493;48.042;7.584;2024-01-30T06:39:08;1.20;99.90
26505;DHT22;19493;48.042;7.584;2024-01-30T06:41:34;1.10;99.90
26505;DHT22;19493;48.042;7.584;2024-01-30T06:44:01;1.10;99.90
26505;DHT22;19493;48.042;7.584;2024-01-30T06:46:27;1.10;99.90
26505;DHT22;19493;48.042;7.584;2024-01-30T06:48:52;1.10;99.90
26505;DHT22;19493;48.042;7.584;2024-01-30T06:51:18;1.20;99.90
26505;DHT22;19493;48.042;7.584;2024-01-30T06:53:44;1.20;99.90
26505;DHT22;19493;48.042;7.584;2024-01-30T06:56:09;1.30;99.90
26505;DHT22;19493;48.042;7.584;2024-01-30T06:58:35;1.40;99.90
26505;DHT22;19493;48.042;7.584;2024-01-30T07:01:00;1.60;99.90
26505;DHT22;19493;48.042;7.584;2024-01-30T07:03:26;1.90;99.90
26505;DHT22;19493;48.042;7.584;2024-01-30T07:05:52;2.40;99.90
26505;DHT22;19493;48.042;7.584;2024-01-30T07:08:17;2.90;99.90
26505;DHT22;19493;48.042;7.584;2024-01-30T07:10:46;3.50;99.90
26505;DHT22;19493;48.042;7.584;2024-01-30T07:13:13;3.80;99.90
26505;DHT22;19493;48.042;7.584;2024-01-30T07:15:38;4.00;99.90
26505;DHT22;19493;48.042;7.584;2024-01-30T07:18:05;4.20;99.90
26505;DHT22;19493;48.042;7.584;2024-01-30T07:20:31;4.30;99.90
26505;DHT22;19493;48.042;7.584;2024-01-30T07:22:58;4.20;99.90
26505;DHT22;19493;48.042;7.584;2024-01-30T07:25:23;4.10;99.90
26505;DHT22;19493;48.042;7.584;2024-01-30T07:27:52;4.00;99.90
26505;DHT22;19493;48.042;7.584;2024-01-30T07:30:18;3.90;99.90
26505;DHT22;19493;48.042;7.584;2024-01-30T07:32:44;3.80;99.90
26505;DHT22;19493;48.042;7.584;2024-01-30T07:35:10;3.80;99.90
26505;DHT22;19493;48.042;7.584;2024-01-30T07:37:36;3.80;99.90
26505;DHT22;19493;48.042;7.584;2024-01-30T07:40:03;3.90;99.90
26505;DHT22;19493;48.042;7.584;2024-01-30T07:42:28;4.00;99.90
26505;DHT22;19493;48.042;7.584;2024-01-30T07:44:54;4.20;99.90
26505;DHT22;19493;48.042;7.584;2024-01-30T07:47:19;4.30;99.90
26505;DHT22;19493;48.042;7.584;2024-01-30T07:49:45;4.50;99.90
26505;DHT22;19493;48.042;7.584;2024-01-30T07:52:11;4.60;99.90
26505;DHT22;19493;48.042;7.584;2024-01-30T07:54:36;4.80;99.90
26505;DHT22;19493;48.042;7.584;2024-01-30T07:57:05;4.90;99.90
26505;DHT22;19493;48.042;7.584;2024-01-30T07:59:30;5.10;99.90
26505;DHT22;19493;48.042;7.584;2024-01-30T08:01:56;5.30;99.90
26505;DHT22;19493;48.042;7.584;2024-01-30T08:04:22;5.40;99.90
26505;DHT22;19493;48.042;7.584;2024-01-30T08:06:47;5.60;99.90
26505;DHT22;19493;48.042;7.584;2024-01-30T08:09:13;5.70;99.90
26505;DHT22;19493;48.042;7.584;2024-01-30T08:11:39;5.70;99.90
26505;DHT22;19493;48.042;7.584;2024-01-30T08:14:05;5.70;99.90
26505;DHT22;19493;48.042;7.584;2024-01-30T08:16:31;5.70;99.90
26505;DHT22;19493;48.042;7.584;2024-01-30T08:18:56;5.80;99.90
26505;DHT22;19493;48.042;7.584;2024-01-30T08:21:23;5.80;99.90
26505;DHT22;19493;48.042;7.584;2024-01-30T08:23:48;6.00;99.90
26505;DHT22;19493;48.042;7.584;2024-01-30T08:26:14;6.10;99.90
26505;DHT22;19493;48.042;7.584;2024-01-30T08:28:39;6.30;99.90
26505;DHT22;19493;48.042;7.584;2024-01-30T08:31:05;6.40;99.90
26505;DHT22;19493;48.042;7.584;2024-01-30T08:33:30;6.50;99.90
26505;DHT22;19493;48.042;7.584;2024-01-30T08:35:56;6.60;99.90
26505;DHT22;19493;48.042;7.584;2024-01-30T08:38:22;6.70;99.90
26505;DHT22;19493;48.042;7.584;2024-01-30T08:40:47;6.80;99.90
26505;DHT22;19493;48.042;7.584;2024-01-30T08:43:13;6.90;99.90
26505;DHT22;19493;48.042;7.584;2024-01-30T08:45:38;7.00;99.90
26505;DHT22;19493;48.042;7.584;2024-01-30T08:48:04;7.10;99.90
26505;DHT22;19493;48.042;7.584;2024-01-30T08:50:29;7.30;99.90
26505;DHT22;19493;48.042;7.584;2024-01-30T08:52:55;7.40;99.90
26505;DHT22;19493;48.042;7.584;2024-01-30T08:55:21;7.60;99.90
26505;DHT22;19493;48.042;7.584;2024-01-30T08:57:47;7.70;99.90
26505;DHT22;19493;48.042;7.584;2024-01-30T09:00:13;8.00;99.90
26505;DHT22;19493;48.042;7.584;2024-01-30T09:02:39;8.20;99.90
26505;DHT22;19493;48.042;7.584;2024-01-30T09:05:04;8.40;99.90
26505;DHT22;19493;48.042;7.584;2024-01-30T09:07:30;8.60;99.90
26505;DHT22;19493;48.042;7.584;2024-01-30T09:09:55;8.80;99.90
26505;DHT22;19493;48.042;7.584;2024-01-30T09:12:21;8.90;99.90
26505;DHT22;19493;48.042;7.584;2024-01-30T09:14:47;9.00;99.90
26505;DHT22;19493;48.042;7.584;2024-01-30T09:17:13;9.10;99.90
26505;DHT22;19493;48.042;7.584;2024-01-30T09:19:38;9.20;99.90
26505;DHT22;19493;48.042;7.584;2024-01-30T09:22:04;9.30;99.90
26505;DHT22;19493;48.042;7.584;2024-01-30T09:24:29;9.40;99.90
26505;DHT22;19493;48.042;7.584;2024-01-30T09:26:55;9.40;99.90
26505;DHT22;19493;48.042;7.584;2024-01-30T09:29:21;9.60;99.90
26505;DHT22;19493;48.042;7.584;2024-01-30T09:31:47;9.70;99.90
26505;DHT22;19493;48.042;7.584;2024-01-30T09:34:13;9.80;99.90
26505;DHT22;19493;48.042;7.584;2024-01-30T09:36:39;9.90;99.90
26505;DHT22;19493;48.042;7.584;2024-01-30T09:39:05;10.00;99.90
26505;DHT22;19493;48.042;7.584;2024-01-30T09:41:32;10.00;99.90
26505;DHT22;19493;48.042;7.584;2024-01-30T09:44:00;10.20;99.90
26505;DHT22;19493;48.042;7.584;2024-01-30T09:46:28;10.30;99.90
26505;DHT22;19493;48.042;7.584;2024-01-30T09:48:55;10.40;99.90
26505;DHT22;19493;48.042;7.584;2024-01-30T09:51:23;10.60;99.90
26505;DHT22;19493;48.042;7.584;2024-01-30T09:53:49;11.10;99.90
26505;DHT22;19493;48.042;7.584;2024-01-30T09:56:15;11.80;99.90
26505;DHT22;19493;48.042;7.584;2024-01-30T09:58:42;12.40;99.90
26505;DHT22;19493;48.042;7.584;2024-01-30T10:01:07;13.30;99.90
26505;DHT22;19493;48.042;7.584;2024-01-30T10:03:33;13.30;99.90
26505;DHT22;19493;48.042;7.584;2024-01-30T10:05:59;13.10;98.30
26505;DHT22;19493;48.042;7.584;2024-01-30T10:08:26;13.10;97.90
26505;DHT22;19493;48.042;7.584;2024-01-30T10:10:52;13.60;97.20
26505;DHT22;19493;48.042;7.584;2024-01-30T10:13:17;14.30;94.90
26505;DHT22;19493;48.042;7.584;2024-01-30T10:15:44;14.20;93.20
26505;DHT22;19493;48.042;7.584;2024-01-30T10:18:10;14.60;92.80
26505;DHT22;19493;48.042;7.584;2024-01-30T10:20:36;14.50;91.80
26505;DHT22;19493;48.042;7.584;2024-01-30T10:23:02;14.40;91.40
26505;DHT22;19493;48.042;7.584;2024-01-30T10:25:29;14.30;91.10
26505;DHT22;19493;48.042;7.584;2024-01-30T10:27:55;14.10;90.90
26505;DHT22;19493;48.042;7.584;2024-01-30T10:30:22;14.20;91.30
26505;DHT22;19493;48.042;7.584;2024-01-30T10:32:48;14.50;90.60
26505;DHT22;19493;48.042;7.584;2024-01-30T10:35:13;16.30;88.60
26505;DHT22;19493;48.042;7.584;2024-01-30T10:37:39;18.30;79.80
26505;DHT22;19493;48.042;7.584;2024-01-30T10:40:05;18.10;75.00
26505;DHT22;19493;48.042;7.584;2024-01-30T10:42:32;17.70;75.40
26505;DHT22;19493;48.042;7.584;2024-01-30T10:45:05;17.90;73.70
26505;DHT22;19493;48.042;7.584;2024-01-30T10:47:34;18.40;70.50
26505;DHT22;19493;48.042;7.584;2024-01-30T10:50:02;18.00;70.50
26505;DHT22;19493;48.042;7.584;2024-01-30T10:52:29;19.10;69.20
26505;DHT22;19493;48.042;7.584;2024-01-30T10:54:55;19.00;66.40
26505;DHT22;19493;48.042;7.584;2024-01-30T10:57:23;17.30;69.30
26505;DHT22;19493;48.042;7.584;2024-01-30T10:59:50;15.70;72.90
26505;DHT22;19493;48.042;7.584;2024-01-30T11:02:18;14.60;76.40
26505;DHT22;19493;48.042;7.584;2024-01-30T11:04:45;13.90;79.80
26505;DHT22;19493;48.042;7.584;2024-01-30T11:07:18;13.50;81.40
26505;DHT22;19493;48.042;7.584;2024-01-30T11:09:50;13.30;83.30
26505;DHT22;19493;48.042;7.584;2024-01-30T11:12:16;14.30;82.50
26505;DHT22;19493;48.042;7.584;2024-01-30T11:14:42;14.10;81.80
26505;DHT22;19493;48.042;7.584;2024-01-30T11:17:09;13.50;82.50
26505;DHT22;19493;48.042;7.584;2024-01-30T11:19:37;13.10;84.60
26505;DHT22;19493;48.042;7.584;2024-01-30T11:22:03;12.90;86.70
26505;DHT22;19493;48.042;7.584;2024-01-30T11:24:40;12.70;87.70
26505;DHT22;19493;48.042;7.584;2024-01-30T11:27:09;12.60;88.80
26505;DHT22;19493;48.042;7.584;2024-01-30T11:29:36;12.50;90.10
26505;DHT22;19493;48.042;7.584;2024-01-30T11:32:02;12.40;90.70
26505;DHT22;19493;48.042;7.584;2024-01-30T11:34:27;12.50;91.00
26505;DHT22;19493;48.042;7.584;2024-01-30T11:36:57;12.60;91.00
26505;DHT22;19493;48.042;7.584;2024-01-30T11:39:26;12.70;91.20
26505;DHT22;19493;48.042;7.584;2024-01-30T11:41:53;12.80;91.40
26505;DHT22;19493;48.042;7.584;2024-01-30T11:44:22;12.90;91.00
26505;DHT22;19493;48.042;7.584;2024-01-30T11:46:48;12.70;91.20
26505;DHT22;19493;48.042;7.584;2024-01-30T11:49:15;12.70;91.50
26505;DHT22;19493;48.042;7.584;2024-01-30T11:51:41;12.70;91.80
26505;DHT22;19493;48.042;7.584;2024-01-30T11:54:07;12.70;91.50
26505;DHT22;19493;48.042;7.584;2024-01-30T11:56:33;12.70;91.70
26505;DHT22;19493;48.042;7.584;2024-01-30T11:58:59;12.70;92.00
26505;DHT22;19493;48.042;7.584;2024-01-30T12:01:26;12.80;92.00
26505;DHT22;19493;48.042;7.584;2024-01-30T12:03:52;12.80;92.20
26505;DHT22;19493;48.042;7.584;2024-01-30T12:06:18;12.90;92.10
26505;DHT22;19493;48.042;7.584;2024-01-30T12:09:01;13.20;91.80
26505;DHT22;19493;48.042;7.584;2024-01-30T12:11:29;13.50;91.40
26505;DHT22;19493;48.042;7.584;2024-01-30T12:13:55;13.50;91.30
26505;DHT22;19493;48.042;7.584;2024-01-30T12:16:21;13.40;90.80
26505;DHT22;19493;48.042;7.584;2024-01-30T12:18:47;13.60;91.20
26505;DHT22;19493;48.042;7.584;2024-01-30T12:21:16;13.90;91.10
26505;DHT22;19493;48.042;7.584;2024-01-30T12:23:42;14.00;90.50
26505;DHT22;19493;48.042;7.584;2024-01-30T12:26:08;14.00;90.40
26505;DHT22;19493;48.042;7.584;2024-01-30T12:28:33;13.90;90.40
26505;DHT22;19493;48.042;7.584;2024-01-30T12:31:03;13.90;90.60
26505;DHT22;19493;48.042;7.584;2024-01-30T12:33:29;13.90;90.60
26505;DHT22;19493;48.042;7.584;2024-01-30T12:35:55;14.00;90.20
26505;DHT22;19493;48.042;7.584;2024-01-30T12:38:22;13.80;90.30
26505;DHT22;19493;48.042;7.584;2024-01-30T12:40:49;14.00;90.50
26505;DHT22;19493;48.042;7.584;2024-01-30T12:43:14;14.30;90.30
26505;DHT22;19493;48.042;7.584;2024-01-30T12:45:41;14.70;89.40
26505;DHT22;19493;48.042;7.584;2024-01-30T12:48:07;15.30;87.10
26505;DHT22;19493;48.042;7.584;2024-01-30T12:50:33;15.80;85.50
26505;DHT22;19493;48.042;7.584;2024-01-30T12:52:58;15.80;84.80
26505;DHT22;19493;48.042;7.584;2024-01-30T12:55:24;15.50;83.70
26505;DHT22;19493;48.042;7.584;2024-01-30T12:57:50;14.80;84.30
26505;DHT22;19493;48.042;7.584;2024-01-30T13:00:16;14.40;86.30
26505;DHT22;19493;48.042;7.584;2024-01-30T13:02:42;14.00;88.00
26505;DHT22;19493;48.042;7.584;2024-01-30T13:05:10;13.60;88.90
26505;DHT22;19493;48.042;7.584;2024-01-30T13:07:36;13.40;90.00
26505;DHT22;19493;48.042;7.584;2024-01-30T13:10:02;13.40;90.50
26505;DHT22;19493;48.042;7.584;2024-01-30T13:12:29;13.40;90.80
26505;DHT22;19493;48.042;7.584;2024-01-30T13:14:55;13.40;90.50
26505;DHT22;19493;48.042;7.584;2024-01-30T13:17:21;13.30;90.60
26505;DHT22;19493;48.042;7.584;2024-01-30T13:19:46;13.30;90.80
26505;DHT22;19493;48.042;7.584;2024-01-30T13:22:15;13.30;90.40
26505;DHT22;19493;48.042;7.584;2024-01-30T13:24:41;13.20;90.80
26505;DHT22;19493;48.042;7.584;2024-01-30T13:27:07;13.20;90.70
26505;DHT22;19493;48.042;7.584;2024-01-30T13:29:32;13.40;91.10
26505;DHT22;19493;48.042;7.584;2024-01-30T13:31:58;13.50;90.90
26505;DHT22;19493;48.042;7.584;2024-01-30T13:34:24;13.70;90.60
26505;DHT22;19493;48.042;7.584;2024-01-30T13:36:50;13.70;90.50
26505;DHT22;19493;48.042;7.584;2024-01-30T13:39:15;13.70;90.30
26505;DHT22;19493;48.042;7.584;2024-01-30T13:41:41;13.70;90.30
26505;DHT22;19493;48.042;7.584;2024-01-30T13:44:08;13.70;90.10
26505;DHT22;19493;48.042;7.584;2024-01-30T13:46:34;13.60;90.30
26505;DHT22;19493;48.042;7.584;2024-01-30T13:49:00;13.60;90.30
26505;DHT22;19493;48.042;7.584;2024-01-30T13:51:26;13.60;90.50
26505;DHT22;19493;48.042;7.584;2024-01-30T13:53:52;13.60;90.60
26505;DHT22;19493;48.042;7.584;2024-01-30T13:56:18;13.60;90.50
26505;DHT22;19493;48.042;7.584;2024-01-30T13:58:44;13.70;90.80
26505;DHT22;19493;48.042;7.584;2024-01-30T14:01:10;13.70;90.50
26505;DHT22;19493;48.042;7.584;2024-01-30T14:03:35;13.50;90.50
26505;DHT22;19493;48.042;7.584;2024-01-30T14:06:01;13.50;90.80
26505;DHT22;19493;48.042;7.584;2024-01-30T14:08:27;13.40;90.80
26505;DHT22;19493;48.042;7.584;2024-01-30T14:10:54;13.40;91.10
26505;DHT22;19493;48.042;7.584;2024-01-30T14:13:21;13.30;91.00
26505;DHT22;19493;48.042;7.584;2024-01-30T14:15:48;13.20;91.50
26505;DHT22;19493;48.042;7.584;2024-01-30T14:18:15;13.10;91.70
26505;DHT22;19493;48.042;7.584;2024-01-30T14:20:40;13.10;92.00
26505;DHT22;19493;48.042;7.584;2024-01-30T14:23:06;13.00;92.20
26505;DHT22;19493;48.042;7.584;2024-01-30T14:25:32;12.90;92.20
26505;DHT22;19493;48.042;7.584;2024-01-30T14:27:57;12.80;92.30
26505;DHT22;19493;48.042;7.584;2024-01-30T14:30:23;12.70;92.60
26505;DHT22;19493;48.042;7.584;2024-01-30T14:32:48;12.60;93.00
26505;DHT22;19493;48.042;7.584;2024-01-30T14:35:14;12.60;93.20
26505;DHT22;19493;48.042;7.584;2024-01-30T14:37:40;12.50;93.60
26505;DHT22;19493;48.042;7.584;2024-01-30T14:40:06;12.40;93.80
26505;DHT22;19493;48.042;7.584;2024-01-30T14:42:35;12.30;94.10
26505;DHT22;19493;48.042;7.584;2024-01-30T14:45:05;12.20;94.60
26505;DHT22;19493;48.042;7.584;2024-01-30T14:47:31;12.10;95.00
26505;DHT22;19493;48.042;7.584;2024-01-30T14:49:57;12.10;95.60
26505;DHT22;19493;48.042;7.584;2024-01-30T14:52:23;12.00;95.70
26505;DHT22;19493;48.042;7.584;2024-01-30T14:54:49;12.00;95.80
26505;DHT22;19493;48.042;7.584;2024-01-30T14:57:14;12.00;96.00
26505;DHT22;19493;48.042;7.584;2024-01-30T14:59:40;12.00;96.20
26505;DHT22;19493;48.042;7.584;2024-01-30T15:02:06;12.00;96.30
26505;DHT22;19493;48.042;7.584;2024-01-30T15:04:32;12.00;96.50
26505;DHT22;19493;48.042;7.584;2024-01-30T15:06:57;12.00;96.60
26505;DHT22;19493;48.042;7.584;2024-01-30T15:09:23;12.00;96.40
26505;DHT22;19493;48.042;7.584;2024-01-30T15:11:51;11.90;96.70
26505;DHT22;19493;48.042;7.584;2024-01-30T15:14:17;11.90;96.20
26505;DHT22;19493;48.042;7.584;2024-01-30T15:16:43;11.80;96.20
26505;DHT22;19493;48.042;7.584;2024-01-30T15:19:08;11.80;96.40
26505;DHT22;19493;48.042;7.584;2024-01-30T15:21:34;11.70;96.40
26505;DHT22;19493;48.042;7.584;2024-01-30T15:24:00;11.70;96.70
26505;DHT22;19493;48.042;7.584;2024-01-30T15:26:26;11.70;97.00
26505;DHT22;19493;48.042;7.584;2024-01-30T15:28:52;11.60;96.60
26505;DHT22;19493;48.042;7.584;2024-01-30T15:31:17;11.60;96.90